createdAt,value
2019-04-16T00:00:19.964Z,1.70
2019-04-16T00:02:54.061Z,1.20
2019-04-16T00:05:41.652Z,1.30
2019-04-16T00:08:27.878Z,1.60
2019-04-16T00:11:08.431Z,1.20
2019-04-16T00:13:40.747Z,1.20
2019-04-16T00:16:12.711Z,2.10
2019-04-16T00:18:39.587Z,1.50
2019-04-16T00:21:42.331Z,1.20
2019-04-16T00:24:31.742Z,1.40
2019-04-16T00:27:00.524Z,1.90
2019-04-16T00:29:32.677Z,2.00
2019-04-16T00:32:07.901Z,1.43
2019-04-16T00:34:33.542Z,1.40
2019-04-16T00:37:02.100Z,1.80
2019-04-16T00:39:30.750Z,1.30
2019-04-16T00:41:59.448Z,1.90
2019-04-16T00:44:28.034Z,1.93
2019-04-16T00:46:56.701Z,2.00
2019-04-16T00:49:26.574Z,1.90
2019-04-16T00:51:55.683Z,1.30
2019-04-16T00:54:24.491Z,1.90
2019-04-16T00:56:53.034Z,1.90
2019-04-16T00:59:24.276Z,1.43
2019-04-16T01:01:51.916Z,1.33
2019-04-16T01:04:20.464Z,1.50
2019-04-16T01:06:49.013Z,1.83
2019-04-16T01:09:17.592Z,1.30
2019-04-16T01:11:48.800Z,1.97
2019-04-16T01:14:16.410Z,1.90
2019-04-16T01:16:45.109Z,1.40
2019-04-16T01:19:13.657Z,2.00
2019-04-16T01:21:44.635Z,1.90
2019-04-16T01:24:12.591Z,1.77
2019-04-16T01:26:41.138Z,2.20
2019-04-16T01:29:11.895Z,1.60
2019-04-16T01:31:51.646Z,1.97
2019-04-16T01:34:36.533Z,1.50
2019-04-16T01:37:12.053Z,1.50
2019-04-16T01:39:40.990Z,2.20
2019-04-16T01:42:09.546Z,1.50
2019-04-16T01:44:38.099Z,1.80
2019-04-16T01:47:06.666Z,1.90
2019-04-16T01:49:35.220Z,1.80
2019-04-16T01:52:03.773Z,2.00
2019-04-16T01:54:32.344Z,2.10
2019-04-16T01:57:01.178Z,2.00
2019-04-16T01:59:29.899Z,1.90
2019-04-16T02:01:58.458Z,1.60
2019-04-16T02:04:27.027Z,1.97
2019-04-16T02:06:57.112Z,1.90
2019-04-16T02:09:25.909Z,2.00
2019-04-16T02:11:54.585Z,2.13
2019-04-16T02:14:23.211Z,1.93
2019-04-16T02:16:55.687Z,1.30
2019-04-16T02:19:22.062Z,2.20
2019-04-16T02:21:50.606Z,2.10
2019-04-16T02:24:19.462Z,2.00
2019-04-16T02:26:48.163Z,2.10
2019-04-16T02:29:16.715Z,2.13
2019-04-16T02:31:47.970Z,2.10
2019-04-16T02:34:15.570Z,1.50
2019-04-16T02:36:44.123Z,1.60
2019-04-16T02:39:12.684Z,1.60
2019-04-16T02:41:41.248Z,1.60
2019-04-16T02:44:14.021Z,1.60
2019-04-16T02:46:40.083Z,2.27
2019-04-16T02:49:08.623Z,1.50
2019-04-16T02:51:47.951Z,2.00
2019-04-16T02:54:38.615Z,1.87
2019-04-16T02:57:26.650Z,2.10
2019-04-16T02:59:53.070Z,1.43
2019-04-16T03:02:37.474Z,1.60
2019-04-16T03:05:21.294Z,2.20
2019-04-16T03:07:49.869Z,2.20
2019-04-16T03:10:18.426Z,1.40
2019-04-16T03:12:51.823Z,2.20
2019-04-16T03:15:19.654Z,1.47
2019-04-16T03:17:48.207Z,1.50
2019-04-16T03:20:17.274Z,2.10
2019-04-16T03:22:45.852Z,1.50
2019-04-16T03:25:14.797Z,1.47
2019-04-16T03:27:43.478Z,2.00
2019-04-16T03:30:12.051Z,1.47
2019-04-16T03:32:52.748Z,2.00
2019-04-16T03:35:25.516Z,1.50
2019-04-16T03:37:51.600Z,1.50
2019-04-16T03:40:24.886Z,2.33
2019-04-16T03:42:50.483Z,1.50
2019-04-16T03:45:19.020Z,1.43
2019-04-16T03:47:50.945Z,1.60
2019-04-16T03:50:17.870Z,1.80
2019-04-16T03:52:46.452Z,1.47
2019-04-16T03:55:15.055Z,2.20
2019-04-16T03:57:43.623Z,1.80
2019-04-16T04:00:13.024Z,2.07
2019-04-16T04:02:41.920Z,1.70
2019-04-16T04:05:10.494Z,1.50
2019-04-16T04:07:43.841Z,1.50
2019-04-16T04:10:09.316Z,2.20
2019-04-16T04:12:37.898Z,1.80
2019-04-16T04:15:06.927Z,2.10
2019-04-16T04:17:38.351Z,2.27
2019-04-16T04:20:06.235Z,2.20
2019-04-16T04:22:34.978Z,2.30
2019-04-16T04:25:04.369Z,1.73
2019-04-16T04:27:33.913Z,1.50
2019-04-16T04:30:02.466Z,1.40
2019-04-16T04:32:32.518Z,1.60
2019-04-16T04:35:01.364Z,1.60
2019-04-16T04:37:31.398Z,1.60
2019-04-16T04:40:00.221Z,2.20
2019-04-16T04:42:29.018Z,1.57
2019-04-16T04:44:57.674Z,1.80
2019-04-16T04:47:26.244Z,1.60
2019-04-16T04:49:54.808Z,1.50
2019-04-16T04:52:23.352Z,1.80
2019-04-16T04:54:54.193Z,1.97
2019-04-16T04:57:22.186Z,2.30
2019-04-16T04:59:50.803Z,1.63
2019-04-16T05:02:19.390Z,1.70
2019-04-16T05:04:55.625Z,1.70
2019-04-16T05:07:25.665Z,1.60
2019-04-16T05:09:54.482Z,1.60
2019-04-16T05:12:23.034Z,1.53
2019-04-16T05:14:57.507Z,1.70
2019-04-16T05:17:25.142Z,1.73
2019-04-16T05:19:53.730Z,1.50
2019-04-16T05:22:22.370Z,1.73
2019-04-16T05:24:50.962Z,1.50
2019-04-16T05:27:19.658Z,1.80
2019-04-16T05:29:48.858Z,1.80
2019-04-16T05:32:18.239Z,2.20
2019-04-16T05:34:46.787Z,2.20
2019-04-16T05:37:16.601Z,1.60
2019-04-16T05:39:45.649Z,2.00
2019-04-16T05:42:14.216Z,1.70
2019-04-16T05:44:42.816Z,1.80
2019-04-16T05:47:11.471Z,1.60
2019-04-16T05:49:40.186Z,2.10
2019-04-16T05:52:08.779Z,1.80
2019-04-16T05:55:01.707Z,1.40
2019-04-16T05:57:33.070Z,1.50
2019-04-16T06:00:03.311Z,1.50
2019-04-16T06:02:42.667Z,1.50
2019-04-16T06:05:11.227Z,2.10
2019-04-16T06:07:39.774Z,1.40
2019-04-16T06:10:08.350Z,1.60
2019-04-16T06:12:49.029Z,1.43
2019-04-16T06:15:46.003Z,1.73
2019-04-16T06:18:22.064Z,1.50
2019-04-16T06:21:02.106Z,1.93
2019-04-16T06:23:48.371Z,1.47
2019-04-16T06:26:36.157Z,1.93
2019-04-16T06:29:13.635Z,2.00
2019-04-16T06:31:55.556Z,2.07
2019-04-16T06:34:41.431Z,1.50
2019-04-16T06:37:20.760Z,1.90
2019-04-16T06:39:54.335Z,1.60
2019-04-16T06:42:27.550Z,1.50
2019-04-16T06:44:57.955Z,2.10
2019-04-16T06:48:00.416Z,1.80
2019-04-16T06:50:50.875Z,1.90
2019-04-16T06:53:41.062Z,1.27
2019-04-16T06:56:27.347Z,1.90
2019-04-16T06:59:01.366Z,1.90
2019-04-16T07:01:47.534Z,1.80
2019-04-16T07:04:29.567Z,1.40
2019-04-16T07:07:40.055Z,1.90
2019-04-16T07:10:13.254Z,1.73
2019-04-16T07:12:41.830Z,1.80
2019-04-16T07:15:10.448Z,1.87
2019-04-16T07:17:40.624Z,1.87
2019-04-16T07:20:13.140Z,1.80
2019-04-16T07:22:39.728Z,2.00
2019-04-16T07:25:08.856Z,1.67
2019-04-16T07:28:02.046Z,1.73
2019-04-16T07:30:40.397Z,1.70
2019-04-16T07:33:37.610Z,1.33
2019-04-16T07:36:28.129Z,1.67
2019-04-16T07:39:28.929Z,1.60
2019-04-16T07:42:10.562Z,1.63
2019-04-16T07:44:44.942Z,1.40
2019-04-16T07:47:20.036Z,1.20
2019-04-16T07:50:17.495Z,1.80
2019-04-16T07:52:59.990Z,1.30
2019-04-16T07:55:43.512Z,1.50
2019-04-16T07:58:12.161Z,1.30
2019-04-16T08:00:41.616Z,1.20
2019-04-16T08:03:10.378Z,1.10
2019-04-16T08:05:41.191Z,1.30
2019-04-16T08:08:09.246Z,1.20
2019-04-16T08:10:37.813Z,1.20
2019-04-16T08:13:18.390Z,1.80
2019-04-16T08:15:46.999Z,1.70
2019-04-16T08:18:15.558Z,1.40
2019-04-16T08:20:44.133Z,1.60
2019-04-16T08:23:30.685Z,1.20
2019-04-16T08:26:04.164Z,1.20
2019-04-16T08:28:30.914Z,1.40
2019-04-16T08:30:59.485Z,1.13
2019-04-16T08:33:29.220Z,1.17
2019-04-16T08:35:57.938Z,1.27
2019-04-16T08:38:26.495Z,1.20
2019-04-16T08:40:55.109Z,1.30
2019-04-16T08:43:26.555Z,1.57
2019-04-16T08:45:53.925Z,1.10
2019-04-16T08:48:22.520Z,0.90
2019-04-16T08:50:51.139Z,1.20
2019-04-16T08:53:19.683Z,1.20
2019-04-16T08:55:48.283Z,1.00
2019-04-16T08:58:16.892Z,1.13
2019-04-16T09:00:47.803Z,1.10
2019-04-16T09:03:16.455Z,1.07
2019-04-16T09:05:45.022Z,1.10
2019-04-16T09:08:22.775Z,1.20
2019-04-16T09:10:51.423Z,0.90
2019-04-16T09:13:22.463Z,1.10
2019-04-16T09:15:51.049Z,1.10
2019-04-16T09:18:37.423Z,1.20
2019-04-16T09:21:07.163Z,1.03
2019-04-16T09:23:36.394Z,1.20
2019-04-16T09:26:25.326Z,1.00
2019-04-16T09:29:09.590Z,1.00
2019-04-16T09:31:55.474Z,0.90
2019-04-16T09:35:07.446Z,0.90
2019-04-16T09:37:58.920Z,1.00
2019-04-16T09:40:44.951Z,1.10
2019-04-16T09:43:18.206Z,1.10
2019-04-16T09:45:47.188Z,1.00
2019-04-16T09:48:15.726Z,1.00
2019-04-16T09:50:47.675Z,1.07
2019-04-16T09:53:14.594Z,1.10
2019-04-16T09:55:47.510Z,1.00
2019-04-16T09:58:22.386Z,1.30
2019-04-16T10:01:07.327Z,1.20
2019-04-16T10:03:37.568Z,0.90
2019-04-16T10:06:06.217Z,1.00
2019-04-16T10:08:34.768Z,0.90
2019-04-16T10:11:06.024Z,0.90
2019-04-16T10:13:36.066Z,0.80
2019-04-16T10:16:04.097Z,0.90
2019-04-16T10:18:35.102Z,0.90
2019-04-16T10:21:03.195Z,0.97
2019-04-16T10:23:50.449Z,0.93
2019-04-16T10:26:19.499Z,0.90
2019-04-16T10:28:48.121Z,0.83
2019-04-16T10:31:18.663Z,0.90
2019-04-16T10:33:47.230Z,0.90
2019-04-16T10:36:15.787Z,0.90
2019-04-16T10:39:04.596Z,0.70
2019-04-16T10:41:44.282Z,0.77
2019-04-16T10:44:20.779Z,0.80
2019-04-16T10:47:08.434Z,0.80
2019-04-16T10:49:52.026Z,1.10
2019-04-16T10:52:39.632Z,0.73
2019-04-16T10:55:36.364Z,0.83
2019-04-16T10:58:30.290Z,0.90
2019-04-16T11:01:03.831Z,0.90
2019-04-16T11:03:40.431Z,0.70
2019-04-16T11:06:13.007Z,1.10
2019-04-16T11:08:41.554Z,0.90
2019-04-16T11:11:10.146Z,0.73
2019-04-16T11:13:58.312Z,0.80
2019-04-16T11:16:17.040Z,0.70
2019-04-16T11:18:45.819Z,0.60
2019-04-16T11:21:14.564Z,0.87
2019-04-16T11:23:43.201Z,0.90
2019-04-16T11:26:11.784Z,0.60
2019-04-16T11:28:40.414Z,0.70
2019-04-16T11:31:14.836Z,0.80
2019-04-16T11:33:43.470Z,0.60
2019-04-16T11:36:19.370Z,0.70
2019-04-16T11:38:42.359Z,0.70
2019-04-16T11:41:10.979Z,0.77
2019-04-16T11:43:39.672Z,0.80
2019-04-16T11:46:08.294Z,0.60
2019-04-16T11:48:38.112Z,0.80
2019-04-16T11:51:06.982Z,0.63
2019-04-16T11:53:35.667Z,0.60
2019-04-16T11:56:04.624Z,0.60
2019-04-16T11:58:40.128Z,0.60
2019-04-16T12:01:23.620Z,0.50
2019-04-16T12:04:10.923Z,0.50
2019-04-16T12:07:00.086Z,0.70
2019-04-16T12:09:46.430Z,0.50
2019-04-16T12:12:22.005Z,0.60
2019-04-16T12:15:25.074Z,0.70
2019-04-16T12:18:15.298Z,0.77
2019-04-16T12:21:08.829Z,0.70
2019-04-16T12:23:48.135Z,0.60
2019-04-16T12:26:29.310Z,0.80
2019-04-16T12:29:23.241Z,0.70
2019-04-16T12:32:16.934Z,0.50
2019-04-16T12:35:23.233Z,0.60
2019-04-16T12:38:13.148Z,0.70
2019-04-16T12:40:59.682Z,0.60
2019-04-16T12:43:39.710Z,0.70
2019-04-16T12:46:25.584Z,0.60
2019-04-16T12:49:11.980Z,0.50
2019-04-16T12:51:53.915Z,0.50
2019-04-16T12:54:43.466Z,0.60
2019-04-16T12:57:37.039Z,0.67
2019-04-16T13:00:27.329Z,0.60
2019-04-16T13:03:32.447Z,0.70
2019-04-16T13:06:18.956Z,0.60
2019-04-16T13:09:05.158Z,0.50
2019-04-16T13:11:42.739Z,0.50
2019-04-16T13:14:17.100Z,0.50
2019-04-16T13:16:57.407Z,0.40
2019-04-16T13:19:38.008Z,0.60
2019-04-16T13:22:06.869Z,0.40
2019-04-16T13:24:41.659Z,0.40
2019-04-16T13:27:18.815Z,0.40
2019-04-16T13:29:47.470Z,0.53
2019-04-16T13:32:16.011Z,0.40
2019-04-16T13:34:44.627Z,0.40
2019-04-16T13:37:13.229Z,0.40
2019-04-16T13:39:48.430Z,0.60
2019-04-16T13:42:17.042Z,0.40
2019-04-16T13:44:48.893Z,0.40
2019-04-16T13:47:17.459Z,0.50
2019-04-16T13:50:05.182Z,0.50
2019-04-16T13:52:33.745Z,0.50
2019-04-16T13:55:19.597Z,0.50
2019-04-16T13:57:59.283Z,0.50
2019-04-16T14:00:33.651Z,0.33
2019-04-16T14:03:07.261Z,0.60
2019-04-16T14:05:38.423Z,0.40
2019-04-16T14:08:06.487Z,0.50
2019-04-16T14:10:35.041Z,0.43
2019-04-16T14:13:03.713Z,0.50
2019-04-16T14:15:38.954Z,0.40
2019-04-16T14:18:04.540Z,0.40
2019-04-16T14:20:33.241Z,0.50
2019-04-16T14:23:01.935Z,0.40
2019-04-16T14:25:34.751Z,0.50
2019-04-16T14:28:03.734Z,0.40
2019-04-16T14:30:42.870Z,0.43
2019-04-16T14:33:12.047Z,0.50
2019-04-16T14:35:41.331Z,0.43
2019-04-16T14:38:10.005Z,0.40
2019-04-16T14:40:39.595Z,0.40
2019-04-16T14:43:09.076Z,0.40
2019-04-16T14:45:57.683Z,0.40
2019-04-16T14:48:13.630Z,0.40
2019-04-16T14:50:42.491Z,0.50
2019-04-16T14:53:11.064Z,0.50
2019-04-16T14:55:59.125Z,0.50
2019-04-16T14:58:33.123Z,0.40
2019-04-16T15:01:28.812Z,0.40
2019-04-16T15:04:11.163Z,0.60
2019-04-16T15:07:14.232Z,0.50
2019-04-16T15:10:08.221Z,0.50
2019-04-16T15:12:59.550Z,0.60
2019-04-16T15:16:07.238Z,0.50
2019-04-16T15:18:44.162Z,0.60
2019-04-16T15:21:34.454Z,0.40
2019-04-16T15:24:19.535Z,0.50
2019-04-16T15:26:58.855Z,0.50
2019-04-16T15:29:45.206Z,0.40
2019-04-16T15:32:34.066Z,0.40
2019-04-16T15:35:01.495Z,0.47
2019-04-16T15:37:36.604Z,0.40
2019-04-16T15:40:10.418Z,0.40
2019-04-16T15:42:59.667Z,0.37
2019-04-16T15:45:42.872Z,0.50
2019-04-16T15:48:29.292Z,0.37
2019-04-16T15:51:19.681Z,0.30
2019-04-16T15:53:55.894Z,0.40
2019-04-16T15:56:35.450Z,0.30
2019-04-16T15:59:15.402Z,0.40
2019-04-16T16:01:59.974Z,0.50
2019-04-16T16:04:50.808Z,0.40
2019-04-16T16:07:25.237Z,0.40
2019-04-16T16:10:16.082Z,0.40
2019-04-16T16:12:44.727Z,0.33
2019-04-16T16:15:13.427Z,0.40
2019-04-16T16:17:41.908Z,0.50
2019-04-16T16:20:11.458Z,0.43
2019-04-16T16:22:40.119Z,0.40
2019-04-16T16:25:08.782Z,0.37
2019-04-16T16:27:41.776Z,0.40
2019-04-16T16:30:07.744Z,0.40
2019-04-16T16:32:36.489Z,0.50
2019-04-16T16:35:05.601Z,0.40
2019-04-16T16:37:36.793Z,0.40
2019-04-16T16:40:04.626Z,0.50
2019-04-16T16:42:33.218Z,0.40
2019-04-16T16:45:03.000Z,0.50
2019-04-16T16:47:41.350Z,0.50
2019-04-16T16:50:11.938Z,0.50
2019-04-16T16:53:05.753Z,0.50
2019-04-16T16:55:49.062Z,0.50
2019-04-16T16:58:39.692Z,0.50
2019-04-16T17:01:33.555Z,0.40
2019-04-16T17:04:15.327Z,0.50
2019-04-16T17:06:43.938Z,0.40
2019-04-16T17:09:22.678Z,0.50
2019-04-16T17:11:51.279Z,0.50
2019-04-16T17:14:19.978Z,0.40
2019-04-16T17:16:48.571Z,0.40
2019-04-16T17:19:17.175Z,0.50
2019-04-16T17:21:45.794Z,0.30
2019-04-16T17:24:14.391Z,0.40
2019-04-16T17:26:42.982Z,0.50
2019-04-16T17:29:12.761Z,0.50
2019-04-16T17:31:42.212Z,0.40
2019-04-16T17:34:11.186Z,0.60
2019-04-16T17:36:39.807Z,0.50
2019-04-16T17:39:10.490Z,0.40
2019-04-16T17:41:47.395Z,0.50
2019-04-16T17:44:33.960Z,0.40
2019-04-16T17:47:10.354Z,0.43
2019-04-16T17:50:04.850Z,0.50
2019-04-16T17:52:40.717Z,0.47
2019-04-16T17:55:27.242Z,0.60
2019-04-16T17:57:58.835Z,0.40
2019-04-16T18:00:52.669Z,0.47
2019-04-16T18:03:40.434Z,0.40
2019-04-16T18:06:25.216Z,0.50
2019-04-16T18:09:01.448Z,0.50
2019-04-16T18:11:41.000Z,0.50
2019-04-16T18:14:29.794Z,0.50
2019-04-16T18:17:27.656Z,0.60
2019-04-16T18:20:24.350Z,0.50
2019-04-16T18:23:03.606Z,0.50
2019-04-16T18:25:56.699Z,0.60
2019-04-16T18:28:26.666Z,0.60
2019-04-16T18:31:00.127Z,0.60
2019-04-16T18:33:59.727Z,0.50
2019-04-16T18:36:31.694Z,0.50
2019-04-16T18:39:25.475Z,0.60
2019-04-16T18:42:06.859Z,0.50
2019-04-16T18:44:44.508Z,0.60
2019-04-16T18:47:38.157Z,0.50
2019-04-16T18:50:09.683Z,0.60
2019-04-16T18:52:38.315Z,0.60
2019-04-16T18:55:06.938Z,0.60
2019-04-16T18:57:38.284Z,0.60
2019-04-16T19:00:09.378Z,0.60
2019-04-16T19:02:41.861Z,0.50
2019-04-16T19:05:08.343Z,0.70
2019-04-16T19:07:36.938Z,0.43
2019-04-16T19:10:05.712Z,0.60
2019-04-16T19:12:34.391Z,0.60
2019-04-16T19:15:03.282Z,0.50
2019-04-16T19:17:32.001Z,0.60
2019-04-16T19:20:03.608Z,0.60
2019-04-16T19:22:30.924Z,0.60
2019-04-16T19:24:59.554Z,0.70
2019-04-16T19:27:30.796Z,0.60
2019-04-16T19:29:58.504Z,0.60
2019-04-16T19:32:27.836Z,0.70
2019-04-16T19:35:09.413Z,0.60
2019-04-16T19:37:29.798Z,0.70
2019-04-16T19:39:58.158Z,0.70
2019-04-16T19:42:28.848Z,0.63
2019-04-16T19:44:57.187Z,0.70
2019-04-16T19:47:26.466Z,0.60
2019-04-16T19:49:55.952Z,0.60
2019-04-16T19:52:24.541Z,0.60
2019-04-16T19:54:53.286Z,0.67
2019-04-16T19:57:22.204Z,0.80
2019-04-16T19:59:50.852Z,0.57
2019-04-16T20:02:19.507Z,0.70
2019-04-16T20:04:50.779Z,0.60
2019-04-16T20:07:18.689Z,0.70
2019-04-16T20:09:47.297Z,0.73
2019-04-16T20:12:15.883Z,0.70
2019-04-16T20:14:44.506Z,0.60
2019-04-16T20:17:13.101Z,0.70
2019-04-16T20:20:00.262Z,0.50
2019-04-16T20:22:29.300Z,0.73
2019-04-16T20:24:59.332Z,0.70
2019-04-16T20:27:27.897Z,0.60
2019-04-16T20:29:56.503Z,0.70
2019-04-16T20:32:25.917Z,0.70
2019-04-16T20:34:54.529Z,0.60
2019-04-16T20:37:23.139Z,0.60
2019-04-16T20:39:51.775Z,0.70
2019-04-16T20:42:20.476Z,0.57
2019-04-16T20:44:49.064Z,0.70
2019-04-16T20:47:17.693Z,0.70
2019-04-16T20:49:49.178Z,0.67
2019-04-16T20:52:16.573Z,0.57
2019-04-16T20:54:53.639Z,0.40
2019-04-16T20:57:25.387Z,0.60
2019-04-16T20:59:52.630Z,0.77
2019-04-16T21:02:21.234Z,0.50
2019-04-16T21:04:49.788Z,0.60
2019-04-16T21:07:18.367Z,0.70
2019-04-16T21:09:46.949Z,0.70
2019-04-16T21:12:15.511Z,0.70
2019-04-16T21:14:44.147Z,0.70
2019-04-16T21:17:12.763Z,0.70
2019-04-16T21:19:50.665Z,0.70
2019-04-16T21:22:19.246Z,0.60
2019-04-16T21:24:47.847Z,0.70
2019-04-16T21:27:16.425Z,0.60
2019-04-16T21:29:45.608Z,0.80
2019-04-16T21:32:33.238Z,0.60
2019-04-16T21:35:06.965Z,0.67
2019-04-16T21:38:01.122Z,0.70
2019-04-16T21:40:29.675Z,0.67
2019-04-16T21:42:58.291Z,0.70
2019-04-16T21:45:26.895Z,0.67
2019-04-16T21:47:56.399Z,0.70
2019-04-16T21:50:25.140Z,0.80
2019-04-16T21:52:55.738Z,0.80
2019-04-16T21:55:24.084Z,0.67
2019-04-16T21:57:52.642Z,0.90
2019-04-16T22:00:43.532Z,0.80
2019-04-16T22:03:13.279Z,0.70
2019-04-16T22:05:41.842Z,0.90
2019-04-16T22:08:10.432Z,0.80
2019-04-16T22:10:39.033Z,0.70
2019-04-16T22:13:07.696Z,0.80
2019-04-16T22:15:36.282Z,0.80
2019-04-16T22:18:09.093Z,0.80
2019-04-16T22:20:36.577Z,0.80
2019-04-16T22:23:05.422Z,0.73
2019-04-16T22:25:34.012Z,0.80
2019-04-16T22:28:02.676Z,0.90
2019-04-16T22:30:31.376Z,1.20
2019-04-16T22:33:05.213Z,0.80
2019-04-16T22:35:49.517Z,0.80
2019-04-16T22:38:19.110Z,0.90
2019-04-16T22:40:54.907Z,0.90
2019-04-16T22:43:42.620Z,0.70
2019-04-16T22:46:35.807Z,0.80
2019-04-16T22:49:04.537Z,0.83
2019-04-16T22:51:33.232Z,0.90
2019-04-16T22:54:01.800Z,0.90
2019-04-16T22:56:38.282Z,0.90
2019-04-16T22:59:08.182Z,0.80
2019-04-16T23:01:37.681Z,0.80
2019-04-16T23:04:06.368Z,0.90
2019-04-16T23:06:37.674Z,0.90
2019-04-16T23:09:05.876Z,0.87
2019-04-16T23:11:34.492Z,0.90
2019-04-16T23:14:03.563Z,0.93
2019-04-16T23:16:32.627Z,0.80
2019-04-16T23:19:01.378Z,0.90
2019-04-16T23:21:29.990Z,0.90
2019-04-16T23:23:58.586Z,0.90
2019-04-16T23:26:32.334Z,0.90
2019-04-16T23:28:57.446Z,0.90
2019-04-16T23:31:26.007Z,0.90
2019-04-16T23:33:54.579Z,1.00
2019-04-16T23:36:23.174Z,0.80
2019-04-16T23:38:51.740Z,1.20
2019-04-16T23:41:20.349Z,1.00
2019-04-16T23:44:06.859Z,0.80
2019-04-16T23:46:56.390Z,0.90
2019-04-16T23:49:38.858Z,0.97
2019-04-16T23:52:16.758Z,0.90
2019-04-16T23:54:53.306Z,0.87
2019-04-16T23:57:44.103Z,0.83
